Time;durP1;ratioP1;P1;durP2;ratioP2;P2;SDS_P1;SDS_P2;PMS_P1;PMS_P2;Temp;Humidity;BMP_temperature;BMP_pressure;BME280_temperature;BME280_humidity;BME280_pressure;Samples;Min_cycle;Max_cycle;Signal;HPM_P1;HPM_P2
2022/05/03 00:01:25;;;;;;;31.23;16.70;;;;;;;;;;6166447;28;20063;-68
2022/05/03 00:04:32;;;;;;;7.47;5.03;;;;;;;;;;6175092;28;20051;-67
2022/05/03 00:07:41;;;;;;;4.30;2.88;;;;;;;;;;6170477;28;20054;-68
2022/05/03 00:10:52;;;;;;;6.13;2.63;;;;;;;;;;6178253;28;20368;-67
2022/05/03 00:14:00;;;;;;;5.15;2.78;;;;;;;;;;6181728;28;20059;-67
2022/05/03 00:17:03;;;;;;;3.97;2.70;;;;;;;;;;6175651;28;20289;-68
2022/05/03 00:20:06;;;;;;;4.68;2.72;;;;;;;;;;6175057;28;20065;-68
2022/05/03 00:23:10;;;;;;;4.03;2.40;;;;;;;;;;6178752;28;20272;-69
2022/05/03 00:26:12;;;;;;;4.72;2.75;;;;;;;;;;6196832;28;20366;-68
2022/05/03 00:29:15;;;;;;;3.17;2.58;;;;;;;;;;6247553;28;20210;-69
2022/05/03 00:32:16;;;;;;;3.97;2.30;;;;;;;;;;6251820;28;20125;-70
2022/05/03 00:35:21;;;;;;;3.38;2.38;;;;;;;;;;6252783;28;20053;-68
2022/05/03 00:38:24;;;;;;;3.38;2.20;;;;;;;;;;6253499;28;20064;-68
2022/05/03 00:41:35;;;;;;;4.78;2.15;;;;;;;;;;6255391;28;20057;-68
2022/05/03 00:44:58;;;;;;;2.72;1.98;;;;;;;;;;6248864;28;20058;-68
2022/05/03 00:48:05;;;;;;;2.75;1.92;;;;;;;;;;6249297;28;20051;-68
2022/05/03 00:51:12;;;;;;;2.83;1.73;;;;;;;;;;6246271;28;20057;-70
2022/05/03 00:54:19;;;;;;;3.60;1.30;;;;;;;;;;6248112;28;20048;-68
2022/05/03 00:57:29;;;;;;;2.28;1.35;;;;;;;;;;6252215;28;20065;-68
2022/05/03 01:00:34;;;;;;;2.22;1.75;;;;;;;;;;6251966;28;20053;-68
2022/05/03 01:03:42;;;;;;;5.78;1.20;;;;;;;;;;6250872;28;20244;-68
2022/05/03 01:06:54;;;;;;;2.05;1.33;;;;;;;;;;6250528;28;20058;-68
2022/05/03 01:10:04;;;;;;;4.10;1.52;;;;;;;;;;6251122;28;20060;-68
2022/05/03 01:13:10;;;;;;;2.30;1.50;;;;;;;;;;6246568;28;20153;-68
2022/05/03 01:16:18;;;;;;;1.65;1.40;;;;;;;;;;6253275;28;20053;-68
2022/05/03 01:19:34;;;;;;;2.97;1.55;;;;;;;;;;6246466;28;20049;-69
2022/05/03 01:22:56;;;;;;;2.25;1.60;;;;;;;;;;6246947;28;20260;-69
2022/05/03 01:26:40;;;;;;;2.58;1.40;;;;;;;;;;6244565;28;20356;-69
2022/05/03 01:29:46;;;;;;;2.22;1.63;;;;;;;;;;6238137;28;20345;-68
2022/05/03 01:32:50;;;;;;;4.25;1.52;;;;;;;;;;6246816;28;20123;-68
2022/05/03 01:35:52;;;;;;;2.55;1.60;;;;;;;;;;6251463;28;20053;-68
2022/05/03 01:39:02;;;;;;;2.80;1.60;;;;;;;;;;6248770;28;20079;-68
2022/05/03 01:42:10;;;;;;;3.67;1.80;;;;;;;;;;6244753;28;20430;-68
2022/05/03 01:45:19;;;;;;;2.30;1.70;;;;;;;;;;6246563;28;20067;-69
2022/05/03 01:50:18;;;;;;;4.10;1.63;;;;;;;;;;6248704;28;20117;-68
2022/05/03 01:52:05;;;;;;;3.17;1.55;;;;;;;;;;6248910;28;20057;-68
2022/05/03 01:55:30;;;;;;;2.90;1.60;;;;;;;;;;6251940;28;20347;-68
2022/05/03 01:58:37;;;;;;;2.88;1.45;;;;;;;;;;6250478;28;20087;-68
2022/05/03 02:01:47;;;;;;;2.10;1.48;;;;;;;;;;6252115;28;20060;-68
2022/05/03 02:05:00;;;;;;;3.67;1.60;;;;;;;;;;6242336;28;20073;-68
2022/05/03 02:08:02;;;;;;;2.10;1.40;;;;;;;;;;6253213;28;20057;-68
2022/05/03 02:11:26;;;;;;;2.55;1.67;;;;;;;;;;6244751;28;20065;-68
2022/05/03 02:14:45;;;;;;;6.05;1.70;;;;;;;;;;6250323;28;20091;-68
2022/05/03 02:17:55;;;;;;;2.28;1.58;;;;;;;;;;6248295;28;20328;-68
2022/05/03 02:21:11;;;;;;;2.38;1.40;;;;;;;;;;6250563;28;20370;-68
2022/05/03 02:24:21;;;;;;;3.13;1.80;;;;;;;;;;6252846;28;20379;-68
2022/05/03 02:27:24;;;;;;;2.60;1.98;;;;;;;;;;6252442;28;20103;-68
2022/05/03 02:30:27;;;;;;;2.70;1.60;;;;;;;;;;6250040;28;20057;-68
2022/05/03 02:33:33;;;;;;;2.28;1.75;;;;;;;;;;6249562;28;20104;-68
2022/05/03 02:36:43;;;;;;;3.05;1.70;;;;;;;;;;6248779;28;20056;-68
2022/05/03 02:39:51;;;;;;;2.50;1.67;;;;;;;;;;6250472;28;20265;-68
2022/05/03 02:42:53;;;;;;;4.60;1.50;;;;;;;;;;6251236;28;20356;-66
2022/05/03 02:46:01;;;;;;;1.95;1.42;;;;;;;;;;6248968;28;20057;-67
2022/05/03 02:49:08;;;;;;;2.90;2.05;;;;;;;;;;6251868;28;20088;-67
2022/05/03 02:52:15;;;;;;;4.68;1.88;;;;;;;;;;6251425;28;20264;-67
2022/05/03 02:55:22;;;;;;;3.50;1.58;;;;;;;;;;6247702;28;20064;-67
2022/05/03 02:58:39;;;;;;;3.58;1.70;;;;;;;;;;6250368;28;20045;-67
2022/05/03 03:01:49;;;;;;;2.08;1.50;;;;;;;;;;6244358;28;20054;-67
2022/05/03 03:04:59;;;;;;;3.40;1.45;;;;;;;;;;6248082;28;20072;-67
2022/05/03 03:08:03;;;;;;;1.25;1.15;;;;;;;;;;6243664;28;20061;-67
2022/05/03 03:11:05;;;;;;;;;;;;;;;;;;6243696;28;20058;-67
2022/05/03 03:14:10;;;;;;;1.80;1.40;;;;;;;;;;6246224;28;20077;-67
2022/05/03 03:17:13;;;;;;;8.00;1.63;;;;;;;;;;6247446;28;20382;-66
2022/05/03 03:20:19;;;;;;;3.58;1.60;;;;;;;;;;6241861;28;20042;-67
2022/05/03 03:23:24;;;;;;;2.08;1.15;;;;;;;;;;6250734;28;20073;-67
2022/05/03 03:26:30;;;;;;;2.75;1.27;;;;;;;;;;6247689;28;20096;-67
2022/05/03 03:29:32;;;;;;;3.88;1.40;;;;;;;;;;6246725;28;20068;-67
2022/05/03 03:32:37;;;;;;;1.83;1.00;;;;;;;;;;6245389;28;20221;-67
2022/05/03 03:35:40;;;;;;;2.90;1.38;;;;;;;;;;6245668;28;20064;-67
2022/05/03 03:38:44;;;;;;;3.00;0.95;;;;;;;;;;6239886;28;20046;-68
2022/05/03 03:41:47;;;;;;;2.65;1.30;;;;;;;;;;6246828;28;20054;-66
2022/05/03 03:44:49;;;;;;;3.23;1.33;;;;;;;;;;6248433;28;20064;-66
2022/05/03 03:47:51;;;;;;;2.95;1.42;;;;;;;;;;6248386;28;20468;-67
2022/05/03 03:50:56;;;;;;;2.30;1.30;;;;;;;;;;6247638;28;20062;-66
2022/05/03 03:53:57;;;;;;;2.92;1.75;;;;;;;;;;6244864;28;20269;-66
2022/05/03 03:56:59;;;;;;;2.63;1.60;;;;;;;;;;6244988;28;20058;-66
2022/05/03 04:00:02;;;;;;;3.67;1.77;;;;;;;;;;6242715;28;20045;-66
2022/05/03 04:03:05;;;;;;;2.67;1.67;;;;;;;;;;6243416;28;20116;-66
2022/05/03 04:06:08;;;;;;;4.18;1.83;;;;;;;;;;6242261;28;20081;-66
2022/05/03 04:09:10;;;;;;;3.63;2.07;;;;;;;;;;6247190;28;20065;-66
2022/05/03 04:12:12;;;;;;;3.47;1.80;;;;;;;;;;6250513;28;20132;-67
2022/05/03 04:15:14;;;;;;;5.40;2.53;;;;;;;;;;6244784;28;20054;-66
2022/05/03 04:18:15;;;;;;;2.15;1.95;;;;;;;;;;6243901;28;20092;-66
2022/05/03 04:21:19;;;;;;;5.07;1.80;;;;;;;;;;6239930;28;20079;-66
2022/05/03 04:24:21;;;;;;;;;;;;;;;;;;6242773;28;20076;-66
2022/05/03 04:27:23;;;;;;;4.07;2.13;;;;;;;;;;6241263;28;19959;-66
2022/05/03 04:30:24;;;;;;;3.42;1.98;;;;;;;;;;6243292;28;20076;-67
2022/05/03 04:33:26;;;;;;;7.03;2.28;;;;;;;;;;6241613;28;20054;-66
2022/05/03 04:36:30;;;;;;;7.28;2.10;;;;;;;;;;6245763;28;20056;-66
2022/05/03 04:39:31;;;;;;;7.78;2.10;;;;;;;;;;6243399;28;20061;-66
2022/05/03 04:42:33;;;;;;;6.85;2.22;;;;;;;;;;6242138;28;20061;-65
2022/05/03 04:45:34;;;;;;;9.95;2.20;;;;;;;;;;6244359;28;20057;-67
2022/05/03 04:48:36;;;;;;;5.05;2.30;;;;;;;;;;6243852;28;20275;-67
2022/05/03 04:51:39;;;;;;;4.90;2.38;;;;;;;;;;6242628;28;20060;-65
2022/05/03 04:54:41;;;;;;;8.37;2.60;;;;;;;;;;6244185;28;20300;-67
2022/05/03 04:57:42;;;;;;;4.65;2.67;;;;;;;;;;6240543;28;20138;-67
2022/05/03 05:00:45;;;;;;;6.43;2.65;;;;;;;;;;6248023;28;20135;-68
2022/05/03 05:03:46;;;;;;;6.15;2.60;;;;;;;;;;6255259;28;20132;-68
2022/05/03 05:06:49;;;;;;;5.40;2.60;;;;;;;;;;6254014;28;20391;-66
2022/05/03 05:13:10;;;;;;;3.78;2.50;;;;;;;;;;6251082;28;20268;-66
2022/05/03 05:16:13;;;;;;;4.00;2.70;;;;;;;;;;6251745;28;20402;-67
2022/05/03 05:19:14;;;;;;;5.78;2.53;;;;;;;;;;6246281;28;20091;-67
2022/05/03 05:22:17;;;;;;;7.05;2.30;;;;;;;;;;6248259;28;20053;-67
2022/05/03 05:25:19;;;;;;;6.47;2.63;;;;;;;;;;6248041;28;20053;-68
2022/05/03 05:28:22;;;;;;;7.40;2.42;;;;;;;;;;6249817;28;20464;-67
2022/05/03 05:31:23;;;;;;;4.03;1.95;;;;;;;;;;6253761;28;20061;-68
2022/05/03 05:34:25;;;;;;;3.03;2.28;;;;;;;;;;6255007;28;20053;-68
2022/05/03 05:37:28;;;;;;;4.55;2.10;;;;;;;;;;6251161;28;20381;-67
2022/05/03 05:40:30;;;;;;;5.43;2.03;;;;;;;;;;6249815;28;20260;-67
2022/05/03 05:43:31;;;;;;;6.47;2.22;;;;;;;;;;6247405;28;20574;-67
2022/05/03 05:46:33;;;;;;;5.20;2.45;;;;;;;;;;6251189;28;20052;-68
2022/05/03 05:49:35;;;;;;;7.68;2.65;;;;;;;;;;6250046;28;20046;-68
2022/05/03 05:55:57;;;;;;;6.65;2.45;;;;;;;;;;6246072;28;20061;-67
2022/05/03 05:58:58;;;;;;;7.45;2.67;;;;;;;;;;6251817;28;20070;-67
2022/05/03 06:02:00;;;;;;;6.28;2.40;;;;;;;;;;6248937;28;20061;-68
2022/05/03 06:05:02;;;;;;;4.03;2.30;;;;;;;;;;6247837;28;20233;-67
2022/05/03 06:08:06;;;;;;;5.47;2.95;;;;;;;;;;6245233;28;20115;-68
2022/05/03 06:11:08;;;;;;;4.97;2.90;;;;;;;;;;6248255;28;20061;-68
2022/05/03 06:14:10;;;;;;;7.28;2.67;;;;;;;;;;6245477;28;20057;-66
2022/05/03 06:17:12;;;;;;;13.30;3.58;;;;;;;;;;6244455;28;20073;-65
2022/05/03 06:20:13;;;;;;;5.38;2.63;;;;;;;;;;6240640;28;20045;-66
2022/05/03 06:23:16;;;;;;;4.70;2.95;;;;;;;;;;6246595;28;20045;-66
2022/05/03 06:26:18;;;;;;;5.80;3.28;;;;;;;;;;6231701;28;20354;-70
2022/05/03 06:29:20;;;;;;;5.47;2.85;;;;;;;;;;6246821;28;20053;-69
2022/05/03 06:32:22;;;;;;;14.45;2.78;;;;;;;;;;6250511;28;20049;-69
2022/05/03 06:35:23;;;;;;;5.32;2.40;;;;;;;;;;6245336;28;20062;-69
2022/05/03 06:38:26;;;;;;;4.25;2.50;;;;;;;;;;6244457;28;20054;-70
2022/05/03 06:41:28;;;;;;;6.55;2.80;;;;;;;;;;6243013;28;20213;-69
2022/05/03 06:44:29;;;;;;;7.25;2.83;;;;;;;;;;6244962;28;20056;-70
2022/05/03 06:47:31;;;;;;;4.97;2.72;;;;;;;;;;6244033;28;20120;-69
2022/05/03 06:50:33;;;;;;;5.97;2.65;;;;;;;;;;6249076;28;20355;-69
2022/05/03 06:53:36;;;;;;;4.45;2.50;;;;;;;;;;6244315;28;20825;-70
2022/05/03 06:56:38;;;;;;;7.97;2.70;;;;;;;;;;6248706;28;20121;-68
2022/05/03 06:59:39;;;;;;;4.90;2.67;;;;;;;;;;6245130;28;20054;-69
2022/05/03 07:02:42;;;;;;;5.47;2.38;;;;;;;;;;6244371;28;20062;-68
2022/05/03 07:05:44;;;;;;;5.40;2.53;;;;;;;;;;6247080;28;20061;-68
2022/05/03 07:08:47;;;;;;;5.70;2.42;;;;;;;;;;6243813;28;20050;-69
2022/05/03 07:11:49;;;;;;;5.30;2.83;;;;;;;;;;6243841;28;20049;-69
2022/05/03 07:14:50;;;;;;;5.40;2.30;;;;;;;;;;6246856;28;20053;-69
2022/05/03 07:24:31;;;;;;;4.97;2.38;;;;;;;;;;6243882;28;20239;-69
2022/05/03 07:27:33;;;;;;;4.95;2.28;;;;;;;;;;6244927;28;20072;-68
2022/05/03 07:30:36;;;;;;;6.68;2.90;;;;;;;;;;6243276;28;20050;-69
2022/05/03 07:33:37;;;;;;;4.63;2.38;;;;;;;;;;6247256;28;20313;-68
2022/05/03 07:36:42;;;;;;;5.10;2.47;;;;;;;;;;6248672;28;20205;-69
2022/05/03 07:39:45;;;;;;;2.80;2.20;;;;;;;;;;6241941;28;20053;-68
2022/05/03 07:42:46;;;;;;;3.75;2.63;;;;;;;;;;6251241;28;20087;-69
2022/05/03 07:45:48;;;;;;;3.38;2.13;;;;;;;;;;6252754;28;20336;-69
2022/05/03 07:48:50;;;;;;;4.88;2.10;;;;;;;;;;6248631;28;20396;-68
2022/05/03 07:51:52;;;;;;;4.95;2.45;;;;;;;;;;6248594;28;20057;-69
2022/05/03 07:54:55;;;;;;;4.82;2.17;;;;;;;;;;6250064;28;20053;-69
2022/05/03 07:57:56;;;;;;;3.80;2.45;;;;;;;;;;6244948;28;20366;-69
2022/05/03 08:00:58;;;;;;;5.47;2.88;;;;;;;;;;6245694;28;20092;-68
2022/05/03 08:04:00;;;;;;;4.93;2.75;;;;;;;;;;6248672;28;20124;-69
2022/05/03 08:07:01;;;;;;;5.75;2.75;;;;;;;;;;6243899;28;20324;-69
2022/05/03 08:10:05;;;;;;;5.18;2.38;;;;;;;;;;6251592;28;20316;-70
2022/05/03 08:13:07;;;;;;;4.70;2.40;;;;;;;;;;6249466;28;20130;-69
2022/05/03 08:16:17;;;;;;;3.60;2.60;;;;;;;;;;6244680;28;20053;-68
2022/05/03 08:19:19;;;;;;;3.88;2.80;;;;;;;;;;6247403;28;20053;-69
2022/05/03 08:22:21;;;;;;;3.80;2.42;;;;;;;;;;6246078;28;20045;-69
2022/05/03 08:25:24;;;;;;;4.68;2.40;;;;;;;;;;6245427;28;20045;-70
2022/05/03 08:28:25;;;;;;;3.88;2.80;;;;;;;;;;6246381;28;20236;-69
2022/05/03 08:31:28;;;;;;;3.92;2.72;;;;;;;;;;6250476;28;20237;-68
2022/05/03 08:34:30;;;;;;;4.63;2.60;;;;;;;;;;6254212;28;20064;-69
2022/05/03 08:44:11;;;;;;;5.82;3.03;;;;;;;;;;6254351;28;20148;-69
2022/05/03 08:47:14;;;;;;;4.90;3.20;;;;;;;;;;6250573;28;20099;-69
2022/05/03 08:50:19;;;;;;;3.75;2.80;;;;;;;;;;6250808;28;20057;-70
2022/05/03 08:53:21;;;;;;;8.30;2.65;;;;;;;;;;6245801;28;20046;-69
2022/05/03 08:56:25;;;;;;;4.10;2.75;;;;;;;;;;6251481;28;20050;-69
2022/05/03 08:59:27;;;;;;;3.40;2.53;;;;;;;;;;6244071;28;20061;-70
2022/05/03 09:02:28;;;;;;;3.58;3.03;;;;;;;;;;6253211;28;20045;-69
2022/05/03 09:05:30;;;;;;;5.10;3.33;;;;;;;;;;6249858;28;20066;-69
2022/05/03 09:08:33;;;;;;;5.63;3.03;;;;;;;;;;6250609;28;20053;-69
2022/05/03 09:11:44;;;;;;;5.38;3.45;;;;;;;;;;6252826;28;20045;-70
2022/05/03 09:14:46;;;;;;;5.15;2.65;;;;;;;;;;6249027;28;20125;-70
2022/05/03 09:17:48;;;;;;;7.30;3.67;;;;;;;;;;6245257;28;20054;-69
2022/05/03 09:24:09;;;;;;;4.05;3.40;;;;;;;;;;6245569;28;20046;-70
2022/05/03 09:27:19;;;;;;;5.47;3.80;;;;;;;;;;6242894;28;20052;-69
2022/05/03 09:30:21;;;;;;;5.28;4.43;;;;;;;;;;6249631;28;20041;-69
2022/05/03 09:33:23;;;;;;;4.25;3.45;;;;;;;;;;6248682;28;20050;-69
2022/05/03 09:36:26;;;;;;;7.28;3.42;;;;;;;;;;6247532;28;20053;-69
2022/05/03 09:39:29;;;;;;;7.10;3.72;;;;;;;;;;6247729;28;20056;-69
2022/05/03 09:42:35;;;;;;;5.70;3.33;;;;;;;;;;6244120;28;20053;-69
2022/05/03 09:45:37;;;;;;;6.85;3.95;;;;;;;;;;6244529;28;20052;-69
2022/05/03 09:48:51;;;;;;;4.40;3.88;;;;;;;;;;6241691;28;20045;-70
2022/05/03 09:51:53;;;;;;;4.57;3.75;;;;;;;;;;6241906;28;20332;-68
2022/05/03 09:54:59;;;;;;;5.13;4.38;;;;;;;;;;6243237;28;20068;-69
2022/05/03 09:58:03;;;;;;;5.50;3.83;;;;;;;;;;6252047;28;20061;-69
2022/05/03 10:01:05;;;;;;;5.85;4.22;;;;;;;;;;6255215;28;20049;-69
2022/05/03 10:04:07;;;;;;;6.18;4.13;;;;;;;;;;6251867;28;20068;-69
2022/05/03 10:07:08;;;;;;;6.50;3.95;;;;;;;;;;6252372;28;20112;-69
2022/05/03 10:10:11;;;;;;;5.57;3.80;;;;;;;;;;6254473;28;20045;-68
2022/05/03 10:13:14;;;;;;;6.28;4.05;;;;;;;;;;6253767;28;20053;-68
2022/05/03 10:22:55;;;;;;;6.43;5.03;;;;;;;;;;6249713;28;20049;-68
2022/05/03 10:25:58;;;;;;;4.15;3.33;;;;;;;;;;6248267;28;20041;-67
2022/05/03 10:29:07;;;;;;;5.15;3.60;;;;;;;;;;6248793;28;20049;-67
2022/05/03 10:32:15;;;;;;;8.18;3.90;;;;;;;;;;6242804;28;20321;-70
2022/05/03 10:35:32;;;;;;;9.07;4.22;;;;;;;;;;6245492;28;20386;-65
2022/05/03 10:38:37;;;;;;;23.98;16.67;;;;;;;;;;6252212;28;20096;-66
2022/05/03 10:41:53;;;;;;;107.10;71.22;;;;;;;;;;6248571;28;20272;-66
2022/05/03 10:45:03;;;;;;;44.67;28.88;;;;;;;;;;6247094;28;20045;-67
2022/05/03 10:48:05;;;;;;;9.68;7.82;;;;;;;;;;6251800;28;20210;-67
2022/05/03 10:51:09;;;;;;;6.73;4.70;;;;;;;;;;6246450;28;20053;-66
2022/05/03 10:54:11;;;;;;;48.90;34.60;;;;;;;;;;6240851;28;20384;-66
2022/05/03 10:57:14;;;;;;;77.38;50.90;;;;;;;;;;6238346;28;20135;-66
2022/05/03 11:00:17;;;;;;;42.17;28.65;;;;;;;;;;6248354;28;20632;-66
2022/05/03 11:03:22;;;;;;;50.17;36.47;;;;;;;;;;6243802;28;20053;-67
2022/05/03 11:06:49;;;;;;;19.77;14.40;;;;;;;;;;6249774;28;20119;-67
2022/05/03 11:09:51;;;;;;;10.55;5.03;;;;;;;;;;6242977;28;20057;-69
2022/05/03 11:12:52;;;;;;;6.65;4.45;;;;;;;;;;6247609;28;20340;-68
2022/05/03 11:16:23;;;;;;;4.82;3.97;;;;;;;;;;6248976;28;20253;-69
2022/05/03 11:19:25;;;;;;;3.80;3.38;;;;;;;;;;6241179;28;20064;-69
2022/05/03 11:22:29;;;;;;;6.65;3.88;;;;;;;;;;6242776;28;20049;-69
2022/05/03 11:25:39;;;;;;;6.25;3.67;;;;;;;;;;6241663;28;20061;-69
2022/05/03 11:28:41;;;;;;;9.23;4.82;;;;;;;;;;6250240;28;20347;-69
2022/05/03 11:31:48;;;;;;;6.88;4.38;;;;;;;;;;6236892;28;20325;-69
2022/05/03 11:34:49;;;;;;;6.50;4.22;;;;;;;;;;6242201;28;20045;-69
2022/05/03 11:37:54;;;;;;;7.80;3.60;;;;;;;;;;6242220;28;20107;-69
2022/05/03 11:40:56;;;;;;;7.53;4.32;;;;;;;;;;6248461;28;20057;-68
2022/05/03 11:43:58;;;;;;;5.97;4.20;;;;;;;;;;6244757;28;20114;-69
2022/05/03 11:47:03;;;;;;;7.45;5.65;;;;;;;;;;6248416;28;20151;-68
2022/05/03 11:50:06;;;;;;;7.22;5.30;;;;;;;;;;6248238;28;20052;-68
2022/05/03 11:56:34;;;;;;;7.82;5.32;;;;;;;;;;6248272;28;20121;-68
2022/05/03 11:59:36;;;;;;;5.88;5.18;;;;;;;;;;6242803;28;20066;-69
2022/05/03 12:02:42;;;;;;;8.57;5.70;;;;;;;;;;6241427;28;20232;-69
2022/05/03 12:06:01;;;;;;;8.07;5.55;;;;;;;;;;6240481;28;20259;-68
2022/05/03 12:09:03;;;;;;;5.90;4.22;;;;;;;;;;6242372;28;20049;-68
2022/05/03 12:15:25;;;;;;;5.07;4.32;;;;;;;;;;6245051;28;20049;-71
2022/05/03 12:18:31;;;;;;;5.72;4.60;;;;;;;;;;6241086;28;20463;-67
2022/05/03 12:21:44;;;;;;;6.55;4.80;;;;;;;;;;6242160;28;20054;-68
2022/05/03 12:24:47;;;;;;;7.03;4.43;;;;;;;;;;6241195;28;20046;-66
2022/05/03 12:27:49;;;;;;;10.20;3.85;;;;;;;;;;6243836;28;20042;-67
2022/05/03 12:30:56;;;;;;;7.05;3.60;;;;;;;;;;6248323;28;20057;-69
2022/05/03 12:34:00;;;;;;;8.85;3.53;;;;;;;;;;6250135;28;20283;-69
2022/05/03 12:37:05;;;;;;;5.47;3.70;;;;;;;;;;6250889;28;20268;-68
2022/05/03 12:40:08;;;;;;;6.43;3.75;;;;;;;;;;6253680;28;20084;-70
2022/05/03 12:43:10;;;;;;;11.35;3.55;;;;;;;;;;6251026;28;20069;-69
2022/05/03 12:46:12;;;;;;;4.77;3.50;;;;;;;;;;6247297;28;20053;-69
2022/05/03 12:49:15;;;;;;;6.80;3.95;;;;;;;;;;6247680;28;20081;-69
2022/05/03 12:52:17;;;;;;;13.10;4.03;;;;;;;;;;6245130;28;20057;-70
2022/05/03 12:55:19;;;;;;;11.88;3.80;;;;;;;;;;6217301;28;20150;-70
2022/05/03 12:58:24;;;;;;;6.33;3.17;;;;;;;;;;6244670;28;20079;-70
2022/05/03 13:01:26;;;;;;;6.35;3.60;;;;;;;;;;6240588;28;20064;-70
2022/05/03 13:04:29;;;;;;;4.35;3.40;;;;;;;;;;6250816;28;20061;-70
2022/05/03 13:07:31;;;;;;;7.72;3.30;;;;;;;;;;6247331;28;20545;-70
2022/05/03 13:10:34;;;;;;;3.72;3.17;;;;;;;;;;6243169;28;20374;-70
2022/05/03 13:13:35;;;;;;;;;;;;;;;;;;6247319;28;20136;-70
2022/05/03 13:16:38;;;;;;;8.45;4.32;;;;;;;;;;6249549;28;19975;-68
2022/05/03 13:19:41;;;;;;;9.73;4.22;;;;;;;;;;6245256;28;20124;-72
2022/05/03 13:22:43;;;;;;;6.88;3.65;;;;;;;;;;6249886;28;20058;-70
2022/05/03 13:25:45;;;;;;;13.60;4.28;;;;;;;;;;6245303;28;20053;-70
2022/05/03 13:28:47;;;;;;;6.72;4.45;;;;;;;;;;6245881;28;20392;-71
2022/05/03 13:31:48;;;;;;;7.00;3.85;;;;;;;;;;6250737;28;20053;-69
2022/05/03 13:34:51;;;;;;;7.85;3.83;;;;;;;;;;6252145;28;20080;-71
2022/05/03 13:41:12;;;;;;;10.32;3.78;;;;;;;;;;6251374;28;20054;-70
2022/05/03 13:44:14;;;;;;;6.03;3.80;;;;;;;;;;6251092;28;20244;-70
2022/05/03 13:47:16;;;;;;;14.33;5.20;;;;;;;;;;6248779;28;20050;-70
2022/05/03 13:50:19;;;;;;;6.13;4.40;;;;;;;;;;6248114;28;20053;-70
2022/05/03 13:53:21;;;;;;;;;;;;;;;;;;6240729;28;20057;-71
2022/05/03 13:56:22;;;;;;;6.63;4.07;;;;;;;;;;6250795;28;20104;-70
2022/05/03 13:59:24;;;;;;;12.02;4.40;;;;;;;;;;6248732;28;20061;-71
2022/05/03 14:02:26;;;;;;;5.68;3.75;;;;;;;;;;6249505;28;20053;-70
2022/05/03 14:05:29;;;;;;;5.70;3.60;;;;;;;;;;6245873;28;20058;-70
2022/05/03 14:08:30;;;;;;;6.63;3.63;;;;;;;;;;6251302;28;20121;-70
2022/05/03 14:11:32;;;;;;;7.53;3.78;;;;;;;;;;6251198;28;20053;-70
2022/05/03 14:14:34;;;;;;;9.73;3.92;;;;;;;;;;6248066;28;20249;-70
2022/05/03 14:17:35;;;;;;;10.63;3.83;;;;;;;;;;6251042;28;20624;-70
2022/05/03 14:20:38;;;;;;;20.40;4.63;;;;;;;;;;6242444;28;20078;-71
2022/05/03 14:23:40;;;;;;;29.48;5.60;;;;;;;;;;6245712;28;20159;-70
2022/05/03 14:26:42;;;;;;;18.63;4.45;;;;;;;;;;6248542;28;20045;-70
2022/05/03 14:29:44;;;;;;;28.05;5.10;;;;;;;;;;6251606;28;20121;-71
2022/05/03 14:32:46;;;;;;;42.80;5.55;;;;;;;;;;6248558;28;20053;-70
2022/05/03 14:35:49;;;;;;;20.37;4.10;;;;;;;;;;6244156;28;20054;-70
2022/05/03 14:38:51;;;;;;;33.10;5.10;;;;;;;;;;6245964;28;20130;-70
2022/05/03 14:41:53;;;;;;;104.00;7.60;;;;;;;;;;6243314;28;20092;-70
2022/05/03 14:44:55;;;;;;;15.30;4.10;;;;;;;;;;6243990;28;20344;-70
2022/05/03 14:47:58;;;;;;;53.45;5.90;;;;;;;;;;6240174;28;20049;-69
2022/05/03 14:51:01;;;;;;;;;;;;;;;;;;6244851;28;20124;-68
2022/05/03 14:54:03;;;;;;;110.25;28.63;;;;;;;;;;6244451;28;19979;-66
2022/05/03 15:03:57;;;;;;;54.78;9.55;;;;;;;;;;6248599;28;20073;-67
2022/05/03 15:07:00;;;;;;;57.00;12.27;;;;;;;;;;6245753;28;20053;-69
2022/05/03 15:10:02;;;;;;;80.88;17.65;;;;;;;;;;6250178;28;20125;-67
2022/05/03 15:13:05;;;;;;;91.07;30.15;;;;;;;;;;6248991;28;20366;-67
2022/05/03 15:16:07;;;;;;;;;;;;;;;;;;6250117;28;20087;-70
2022/05/03 15:19:09;;;;;;;10.68;4.25;;;;;;;;;;6251928;28;19921;-69
2022/05/03 15:22:12;;;;;;;24.55;3.90;;;;;;;;;;6248436;28;20061;-69
2022/05/03 15:25:12;;;;;;;81.03;8.07;;;;;;;;;;6248468;28;20048;-70
2022/05/03 15:28:15;;;;;;;38.10;5.43;;;;;;;;;;6244945;28;20107;-69
2022/05/03 15:31:16;;;;;;;29.60;4.33;;;;;;;;;;6248152;28;20354;-71
2022/05/03 15:34:18;;;;;;;9.77;3.65;;;;;;;;;;6247508;28;20395;-70
2022/05/03 15:37:22;;;;;;;15.35;4.85;;;;;;;;;;6247077;28;20167;-70
2022/05/03 15:40:23;;;;;;;;;;;;;;;;;;6244136;28;20112;-70
2022/05/03 15:43:25;;;;;;;19.73;4.45;;;;;;;;;;6243220;28;19975;-70
2022/05/03 15:46:26;;;;;;;14.77;3.78;;;;;;;;;;6245008;28;20053;-70
2022/05/03 15:49:31;;;;;;;5.97;3.35;;;;;;;;;;6247488;28;20057;-70
2022/05/03 15:52:34;;;;;;;30.77;4.15;;;;;;;;;;6245727;28;20371;-69
2022/05/03 15:55:36;;;;;;;12.43;3.60;;;;;;;;;;6244575;28;20052;-69
2022/05/03 15:58:39;;;;;;;12.68;3.42;;;;;;;;;;6245852;28;20061;-69
2022/05/03 16:01:40;;;;;;;25.67;3.87;;;;;;;;;;6249109;28;20052;-69
2022/05/03 16:04:42;;;;;;;15.82;3.53;;;;;;;;;;6250580;28;20291;-69
2022/05/03 16:07:45;;;;;;;28.55;3.90;;;;;;;;;;6248999;28;20064;-69
2022/05/03 16:10:47;;;;;;;;;;;;;;;;;;6248509;28;20332;-69
2022/05/03 16:13:49;;;;;;;13.52;3.53;;;;;;;;;;6239389;28;19917;-70
2022/05/03 16:16:51;;;;;;;6.93;3.13;;;;;;;;;;6244532;28;20099;-69
2022/05/03 16:19:53;;;;;;;18.33;4.30;;;;;;;;;;6244064;28;20046;-69
2022/05/03 16:22:56;;;;;;;11.00;3.03;;;;;;;;;;6241243;28;20064;-69
2022/05/03 16:25:58;;;;;;;6.97;3.67;;;;;;;;;;6242549;28;20061;-69
2022/05/03 16:28:59;;;;;;;17.42;5.57;;;;;;;;;;6246267;28;20099;-74
2022/05/03 16:32:01;;;;;;;8.48;4.93;;;;;;;;;;6247794;28;20049;-72
2022/05/03 16:35:03;;;;;;;8.20;5.28;;;;;;;;;;6252090;28;20056;-74
2022/05/03 16:44:53;;;;;;;7.40;5.60;;;;;;;;;;6237309;28;20088;-73
2022/05/03 16:47:56;;;;;;;6.18;4.82;;;;;;;;;;6246300;28;20045;-74
2022/05/03 16:50:58;;;;;;;6.70;5.73;;;;;;;;;;6254084;28;20055;-73
2022/05/03 16:54:01;;;;;;;11.18;5.78;;;;;;;;;;6251964;28;20448;-75
2022/05/03 16:57:03;;;;;;;10.77;6.50;;;;;;;;;;6247523;28;20057;-70
2022/05/03 17:00:06;;;;;;;11.77;6.38;;;;;;;;;;6247552;28;20054;-72
2022/05/03 17:03:08;;;;;;;7.95;6.35;;;;;;;;;;6248303;28;20053;-70
2022/05/03 17:06:09;;;;;;;11.43;7.35;;;;;;;;;;6251393;28;20083;-70
2022/05/03 17:09:14;;;;;;;10.30;7.57;;;;;;;;;;6245145;28;20546;-69
2022/05/03 17:12:16;;;;;;;9.98;7.63;;;;;;;;;;6248896;28;20049;-69
2022/05/03 17:15:18;;;;;;;11.85;9.05;;;;;;;;;;6252454;28;20057;-68
2022/05/03 17:18:20;;;;;;;12.50;9.50;;;;;;;;;;6251531;28;20054;-69
2022/05/03 17:21:21;;;;;;;13.55;9.55;;;;;;;;;;6252667;28;20374;-70
2022/05/03 17:24:24;;;;;;;12.40;8.90;;;;;;;;;;6245842;28;20061;-70
2022/05/03 17:27:27;;;;;;;16.43;8.47;;;;;;;;;;6249882;28;20045;-70
2022/05/03 17:30:28;;;;;;;12.23;8.98;;;;;;;;;;6257697;28;20347;-69
2022/05/03 17:33:30;;;;;;;11.55;7.97;;;;;;;;;;6255310;28;20222;-70
2022/05/03 17:36:32;;;;;;;11.80;7.53;;;;;;;;;;6253716;28;20057;-70
2022/05/03 17:39:35;;;;;;;10.73;8.48;;;;;;;;;;6254613;28;20084;-71
2022/05/03 17:42:37;;;;;;;11.02;7.72;;;;;;;;;;6252969;28;20061;-73
2022/05/03 17:45:39;;;;;;;10.23;7.93;;;;;;;;;;6253324;28;20351;-71
2022/05/03 17:48:41;;;;;;;10.55;7.18;;;;;;;;;;6254481;28;20115;-72
2022/05/03 17:55:04;;;;;;;9.27;7.03;;;;;;;;;;6256080;28;20045;-69
2022/05/03 17:58:05;;;;;;;10.40;7.38;;;;;;;;;;6254841;28;20061;-70
2022/05/03 18:01:08;;;;;;;9.27;7.45;;;;;;;;;;6252995;28;20225;-72
2022/05/03 18:04:10;;;;;;;10.80;7.30;;;;;;;;;;6252174;28;20066;-69
2022/05/03 18:07:13;;;;;;;9.13;7.03;;;;;;;;;;6250828;28;20058;-70
2022/05/03 18:10:17;;;;;;;11.63;7.75;;;;;;;;;;6253350;28;20057;-74
2022/05/03 18:13:18;;;;;;;7.60;6.78;;;;;;;;;;6252508;28;20413;-71
2022/05/03 18:16:20;;;;;;;9.05;7.00;;;;;;;;;;6251962;28;20053;-75
2022/05/03 18:19:21;;;;;;;10.02;7.70;;;;;;;;;;6250497;28;20069;-71
2022/05/03 18:22:23;;;;;;;8.73;6.57;;;;;;;;;;6256272;28;20057;-73
2022/05/03 18:25:26;;;;;;;9.50;6.82;;;;;;;;;;6255016;28;20049;-70
2022/05/03 18:28:28;;;;;;;8.87;7.27;;;;;;;;;;6255084;28;20137;-71
2022/05/03 18:31:30;;;;;;;9.48;7.15;;;;;;;;;;6249550;28;20057;-71
2022/05/03 18:34:31;;;;;;;13.55;8.77;;;;;;;;;;6249271;28;20100;-71
2022/05/03 18:37:33;;;;;;;9.02;7.60;;;;;;;;;;6248989;28;20054;-72
2022/05/03 18:40:37;;;;;;;12.10;9.00;;;;;;;;;;6249787;28;20054;-71
2022/05/03 18:43:39;;;;;;;;;;;;;;;;;;6249094;28;20410;-68
2022/05/03 18:46:41;;;;;;;8.73;7.72;;;;;;;;;;6248546;28;20151;-68
2022/05/03 18:49:42;;;;;;;9.35;6.75;;;;;;;;;;6247749;28;20050;-69
2022/05/03 18:52:45;;;;;;;7.72;6.20;;;;;;;;;;6252685;28;20057;-67
2022/05/03 18:55:48;;;;;;;9.68;6.93;;;;;;;;;;6249951;28;20053;-69
2022/05/03 18:58:50;;;;;;;10.33;6.83;;;;;;;;;;6250686;28;20053;-69
2022/05/03 19:01:52;;;;;;;9.25;7.60;;;;;;;;;;6251256;28;20053;-69
2022/05/03 19:04:54;;;;;;;9.95;7.60;;;;;;;;;;6246254;28;20058;-69
2022/05/03 19:07:57;;;;;;;9.85;7.05;;;;;;;;;;6245065;28;20096;-69
2022/05/03 19:11:00;;;;;;;10.02;7.82;;;;;;;;;;6245141;28;20057;-69
2022/05/03 19:14:02;;;;;;;8.95;7.38;;;;;;;;;;6243945;28;20060;-70
2022/05/03 19:17:04;;;;;;;10.27;8.43;;;;;;;;;;6245659;28;20336;-71
2022/05/03 19:20:08;;;;;;;11.13;8.07;;;;;;;;;;6248354;28;20053;-70